Time;durP1;ratioP1;P1;durP2;ratioP2;P2;SDS_P1;SDS_P2;PMS_P1;PMS_P2;Temp;Humidity;BMP_temperature;BMP_pressure;BME280_temperature;BME280_humidity;BME280_pressure;Samples;Min_cycle;Max_cycle;Signal;HPM_P1;HPM_P2
2023/06/06 00:02:48;;;;;;;9.13;2.45;;;;;;;14.76;52.00;100800.89;1730464;83;21345;-80
2023/06/06 00:05:48;;;;;;;5.55;2.17;;;;;;;14.63;52.40;100800.70;1730428;83;21944;-80
2023/06/06 00:08:50;;;;;;;3.85;2.37;;;;;;;14.45;53.02;100805.21;1730463;83;21892;-81
2023/06/06 00:11:56;;;;;;;12.93;2.45;;;;;;;14.46;52.86;100802.78;1729085;83;21348;-80
2023/06/06 00:15:03;;;;;;;8.15;2.58;;;;;;;14.47;52.66;100804.48;1729850;83;21345;-80
2023/06/06 00:18:08;;;;;;;10.65;2.37;;;;;;;14.72;52.28;100806.45;1729508;83;21925;-80
2023/06/06 00:21:14;;;;;;;5.00;2.50;;;;;;;14.73;52.31;100810.08;1730450;83;21333;-80
2023/06/06 00:24:20;;;;;;;12.50;2.67;;;;;;;14.75;52.08;100807.45;1730523;83;21314;-80
2023/06/06 00:27:27;;;;;;;6.10;2.67;;;;;;;14.73;51.90;100808.18;1730234;83;21321;-81
2023/06/06 00:30:33;;;;;;;8.28;2.30;;;;;;;14.79;51.17;100807.40;1729896;83;21903;-80
2023/06/06 00:33:39;;;;;;;7.42;2.47;;;;;;;14.83;50.83;100816.99;1730527;83;21337;-80
2023/06/06 00:36:46;;;;;;;5.53;2.25;;;;;;;14.81;50.69;100815.45;1730412;83;21313;-79
2023/06/06 00:39:52;;;;;;;3.95;2.12;;;;;;;14.78;50.57;100821.38;1730471;83;21871;-81
2023/06/06 00:42:58;;;;;;;6.97;2.47;;;;;;;15.11;49.90;100818.19;1730492;83;21341;-82
2023/06/06 00:46:04;;;;;;;9.03;2.70;;;;;;;15.12;49.63;100822.11;1729428;83;21345;-81
2023/06/06 00:49:10;;;;;;;12.35;2.55;;;;;;;15.16;49.36;100823.97;1730442;83;21960;-81
2023/06/06 00:52:15;;;;;;;4.35;2.75;;;;;;;15.11;49.88;100820.41;1730416;83;21314;-81
2023/06/06 00:55:23;;;;;;;4.05;2.35;;;;;;;15.03;50.40;100825.50;1730533;83;21309;-81
2023/06/06 00:58:29;;;;;;;6.05;2.35;;;;;;;15.02;50.63;100827.08;1739827;82;21875;-81
2023/06/06 01:01:36;;;;;;;8.75;2.50;;;;;;;14.71;51.16;100826.77;1745120;82;21978;-81
2023/06/06 01:04:43;;;;;;;8.10;2.50;;;;;;;14.76;51.62;100822.92;1746454;82;21348;-81
2023/06/06 01:07:50;;;;;;;5.40;2.58;;;;;;;14.77;51.84;100831.53;1746131;82;21317;-81
2023/06/06 01:10:57;;;;;;;8.23;2.58;;;;;;;14.73;52.09;100831.58;1746560;82;21324;-81
2023/06/06 01:14:09;;;;;;;13.75;2.55;;;;;;;14.45;53.10;100827.23;1746505;82;21317;-81
2023/06/06 01:17:17;;;;;;;4.40;2.10;;;;;;;14.71;52.53;100830.90;1746447;82;21313;-81
2023/06/06 01:20:23;;;;;;;7.00;2.17;;;;;;;14.59;52.74;100835.72;1746472;82;22610;-81
2023/06/06 01:23:30;;;;;;;4.33;2.00;;;;;;;14.55;52.91;100833.34;1746546;82;21300;-80
2023/06/06 01:26:35;;;;;;;6.35;2.40;;;;;;;14.54;53.09;100839.89;1746373;82;21884;-81
2023/06/06 01:29:43;;;;;;;3.67;2.22;;;;;;;14.54;52.97;100841.27;1745075;82;21308;-81
2023/06/06 01:33:02;;;;;;;6.33;2.40;;;;;;;14.46;52.92;100841.84;1746529;82;21867;-81
2023/06/06 01:36:37;;;;;;;6.90;2.00;;;;;;;14.51;52.19;100841.64;1745283;82;21333;-81
2023/06/06 01:39:42;;;;;;;4.10;2.52;;;;;;;14.40;52.29;100846.21;1745272;82;21348;-80
2023/06/06 01:42:55;;;;;;;7.40;2.33;;;;;;;14.30;52.51;100849.73;1746522;82;21312;-81
2023/06/06 01:46:00;;;;;;;4.00;2.17;;;;;;;14.19;53.00;100851.58;1746546;82;21916;-81
2023/06/06 01:49:05;;;;;;;7.00;2.30;;;;;;;14.25;53.08;100857.69;1745957;82;21340;-81
2023/06/06 01:52:11;;;;;;;7.40;1.82;;;;;;;14.37;52.85;100858.95;1746742;82;21304;-81
2023/06/06 01:55:16;;;;;;;6.90;2.30;;;;;;;14.37;52.83;100857.59;1746634;82;21324;-81
2023/06/06 01:58:22;;;;;;;5.60;2.12;;;;;;;14.32;53.50;100854.54;1745364;82;21911;-81
2023/06/06 02:01:29;;;;;;;3.55;2.10;;;;;;;14.71;53.29;100858.95;1746099;82;21304;-82
2023/06/06 02:04:35;;;;;;;8.63;2.15;;;;;;;15.09;52.70;100858.30;1746390;82;21336;-81
2023/06/06 02:07:42;;;;;;;6.33;2.40;;;;;;;15.43;52.02;100861.81;1746449;82;21321;-82
2023/06/06 02:10:48;;;;;;;6.35;2.08;;;;;;;15.93;50.89;100862.77;1746533;82;21931;-82
2023/06/06 02:13:47;;;;;;;4.92;2.42;;;;;;;16.06;50.39;100864.27;1746701;82;21317;-82
2023/06/06 02:16:53;;;;;;;6.65;2.20;;;;;;;16.38;49.59;100866.13;1745965;82;22756;-82
2023/06/06 02:19:58;;;;;;;5.72;2.20;;;;;;;16.70;48.77;100867.92;1745430;82;21375;-82
2023/06/06 02:23:04;;;;;;;6.33;2.15;;;;;;;16.98;47.97;100859.61;1746420;82;21962;-81
2023/06/06 02:26:10;;;;;;;10.80;2.50;;;;;;;17.20;47.37;100870.03;1746438;82;21305;-82
2023/06/06 02:29:16;;;;;;;5.17;1.95;;;;;;;17.66;46.49;100873.49;1746020;82;21320;-82
2023/06/06 02:32:23;;;;;;;7.92;2.20;;;;;;;18.22;45.20;100869.87;1745456;82;21356;-82
2023/06/06 02:35:29;;;;;;;3.20;2.17;;;;;;;18.57;44.54;100877.39;1745957;82;21328;-82
2023/06/06 02:38:37;;;;;;;3.55;2.17;;;;;;;19.19;43.46;100882.60;1745783;82;21356;-82
2023/06/06 02:41:42;;;;;;;5.85;2.10;;;;;;;19.35;42.72;100881.58;1745889;82;21320;-82
2023/06/06 02:44:50;;;;;;;4.53;1.77;;;;;;;19.69;41.96;100884.22;1744439;82;21340;-82
2023/06/06 02:47:57;;;;;;;4.47;1.90;;;;;;;20.11;40.93;100890.45;1745375;82;21927;-81
2023/06/06 02:51:03;;;;;;;7.30;2.05;;;;;;;20.42;40.82;100883.16;1746047;82;22523;-82
2023/06/06 02:54:09;;;;;;;4.92;1.90;;;;;;;20.62;40.64;100880.22;1723960;82;21352;-81
2023/06/06 02:57:16;;;;;;;3.75;2.08;;;;;;;20.84;40.01;100884.79;1746415;82;21383;-81
2023/06/06 03:00:21;;;;;;;6.08;2.00;;;;;;;21.05;39.12;100883.51;1735478;82;21352;-81
2023/06/06 03:03:26;;;;;;;5.15;2.00;;;;;;;21.27;38.36;100887.53;1729329;83;21349;-81
2023/06/06 03:06:32;;;;;;;2.70;1.85;;;;;;;21.61;37.64;100888.81;1729167;83;21329;-81
2023/06/06 03:09:38;;;;;;;9.60;2.30;;;;;;;21.84;37.11;100884.44;1730011;83;21297;-81
2023/06/06 03:12:47;;;;;;;6.12;1.70;;;;;;;22.11;37.01;100889.95;1730568;83;21310;-81
2023/06/06 03:15:48;;;;;;;4.55;1.75;;;;;;;22.37;36.83;100883.07;1730582;83;21321;-81
2023/06/06 03:18:55;;;;;;;3.83;1.70;;;;;;;22.59;36.18;100883.34;1729201;83;21888;-80
2023/06/06 03:22:00;;;;;;;2.22;1.45;;;;;;;22.69;35.77;100882.73;1730629;83;21321;-81
2023/06/06 03:25:06;;;;;;;1.85;1.45;;;;;;;22.66;35.68;100886.00;1730574;83;21402;-80
2023/06/06 03:28:12;;;;;;;6.22;2.15;;;;;;;22.62;35.89;100884.78;1730682;83;21317;-81
2023/06/06 03:31:23;;;;;;;4.45;1.80;;;;;;;22.86;36.97;100887.86;1730931;83;21314;-81
2023/06/06 03:34:27;;;;;;;8.58;2.02;;;;;;;22.90;36.68;100891.05;1730450;83;21313;-81
2023/06/06 03:37:35;;;;;;;12.07;2.08;;;;;;;23.04;36.38;100887.46;1730401;83;21309;-81
2023/06/06 03:40:40;;;;;;;6.62;1.95;;;;;;;22.98;36.21;100892.08;1729617;83;21385;-81
2023/06/06 03:43:49;;;;;;;9.00;2.20;;;;;;;23.03;37.79;100894.98;1730544;83;21321;-82
2023/06/06 03:46:55;;;;;;;11.83;2.02;;;;;;;23.30;38.23;100890.28;1730440;83;21325;-81
2023/06/06 03:50:01;;;;;;;8.33;2.00;;;;;;;23.49;37.93;100897.38;1730575;83;21321;-81
2023/06/06 03:53:07;;;;;;;7.42;1.90;;;;;;;23.50;38.74;100896.27;1730600;82;21226;-81
2023/06/06 03:56:13;;;;;;;6.17;1.90;;;;;;;23.55;38.32;100897.77;1730347;83;21314;-81
2023/06/06 03:59:19;;;;;;;5.55;1.82;;;;;;;23.61;37.52;100890.34;1730405;83;21337;-81
2023/06/06 04:02:24;;;;;;;5.70;1.72;;;;;;;23.51;35.91;100892.38;1729665;83;21394;-81
2023/06/06 04:05:32;;;;;;;10.88;1.65;;;;;;;23.48;35.53;100892.89;1730661;83;21365;-81
2023/06/06 04:08:36;;;;;;;5.28;1.80;;;;;;;23.45;35.65;100894.23;1730543;83;21915;-81
2023/06/06 04:11:42;;;;;;;7.90;1.80;;;;;;;23.54;35.46;100891.89;1729520;83;21320;-81
2023/06/06 04:14:48;;;;;;;3.05;1.45;;;;;;;23.88;35.16;100899.02;1730485;83;21333;-81
2023/06/06 04:17:54;;;;;;;4.72;1.60;;;;;;;24.11;35.10;100897.49;1730438;83;21313;-81
2023/06/06 04:21:01;;;;;;;10.23;1.75;;;;;;;24.43;34.20;100894.17;1729059;83;21917;-81
2023/06/06 04:24:07;;;;;;;3.92;1.85;;;;;;;24.50;33.44;100891.19;1729014;83;21321;-81
2023/06/06 04:27:16;;;;;;;5.28;1.90;;;;;;;24.39;33.70;100888.78;1729141;83;21310;-81
2023/06/06 04:30:29;;;;;;;3.25;1.70;;;;;;;24.23;34.19;100880.11;1730433;83;21317;-80
2023/06/06 04:33:30;;;;;;;5.50;1.92;;;;;;;24.26;33.71;100880.69;1730359;83;21337;-80
2023/06/06 04:36:38;;;;;;;3.67;1.52;;;;;;;24.48;33.03;100880.27;1730571;83;21312;-80
2023/06/06 04:39:43;;;;;;;2.90;1.75;;;;;;;24.70;31.74;100874.20;1730748;83;21336;-80
2023/06/06 04:42:50;;;;;;;3.90;1.70;;;;;;;25.06;31.05;100883.09;1730442;83;21321;-80
2023/06/06 04:46:00;;;;;;;5.87;1.85;;;;;;;25.44;30.77;100885.03;1730253;83;21490;-80
2023/06/06 04:49:06;;;;;;;4.22;1.95;;;;;;;25.59;30.42;100889.96;1730412;83;21873;-80
2023/06/06 04:52:14;;;;;;;2.40;1.40;;;;;;;25.71;29.71;100883.67;1729423;83;21929;-80
2023/06/06 04:55:19;;;;;;;4.40;1.65;;;;;;;26.01;28.83;100887.94;1730787;83;21346;-80
2023/06/06 04:58:28;;;;;;;3.33;1.70;;;;;;;26.36;28.76;100889.41;1730509;83;21310;-80
2023/06/06 05:01:34;;;;;;;4.00;1.60;;;;;;;26.50;28.34;100896.28;1729508;83;21368;-81
2023/06/06 05:04:41;;;;;;;7.30;1.12;;;;;;;26.54;26.92;100900.78;1730146;81;21868;-81
2023/06/06 05:07:47;;;;;;;7.45;1.65;;;;;;;26.62;25.92;100899.73;1730810;83;21313;-81
2023/06/06 05:10:53;;;;;;;2.98;1.52;;;;;;;26.72;26.10;100890.01;1713238;83;21340;-81
2023/06/06 05:14:00;;;;;;;2.65;1.20;;;;;;;26.74;26.24;100890.57;1730297;83;21342;-81
2023/06/06 05:17:06;;;;;;;5.10;1.30;;;;;;;26.73;26.60;100895.91;1730429;83;21641;-81
2023/06/06 05:20:13;;;;;;;1.85;1.20;;;;;;;26.74;26.26;100896.19;1730385;83;21310;-81
2023/06/06 05:23:18;;;;;;;5.45;1.42;;;;;;;26.60;25.78;100900.56;1731040;83;21317;-81
2023/06/06 05:26:25;;;;;;;3.47;1.57;;;;;;;26.62;25.80;100895.52;1729373;81;21325;-81
2023/06/06 05:29:33;;;;;;;2.22;1.17;;;;;;;26.66;25.93;100886.86;1734325;81;21299;-82
2023/06/06 05:32:46;;;;;;;3.58;1.85;;;;;;;26.76;26.10;100892.54;1748969;81;21310;-82
2023/06/06 05:36:00;;;;;;;2.25;1.25;;;;;;;26.82;26.15;100893.45;1733894;82;21374;-82
2023/06/06 05:39:06;;;;;;;2.62;1.30;;;;;;;26.91;25.05;100886.73;1713650;82;21305;-81
2023/06/06 05:42:13;;;;;;;2.90;1.25;;;;;;;26.89;25.22;100883.38;1737017;82;21908;-83
2023/06/06 05:45:18;;;;;;;1.32;0.95;;;;;;;26.85;25.37;100886.42;1677430;85;21306;-83
2023/06/06 05:48:23;;;;;;;2.65;1.20;;;;;;;26.87;24.73;100893.47;1671998;83;21864;-81
2023/06/06 05:51:28;;;;;;;1.40;1.22;;;;;;;26.98;24.36;100891.00;1683533;83;21323;-81
2023/06/06 05:54:45;;;;;;;4.28;1.20;;;;;;;26.84;23.34;100884.75;1682867;85;21366;-82
2023/06/06 05:57:51;;;;;;;2.55;1.47;;;;;;;26.91;24.01;100885.33;1683564;83;21365;-82
2023/06/06 06:00:58;;;;;;;2.67;1.32;;;;;;;27.05;23.60;100887.95;1684608;83;21340;-82
2023/06/06 06:04:05;;;;;;;2.15;1.07;;;;;;;26.93;23.54;100888.17;1681111;84;21396;-81
2023/06/06 06:07:11;;;;;;;3.27;1.32;;;;;;;27.03;23.42;100888.79;1686373;83;21311;-81
2023/06/06 06:10:20;;;;;;;4.17;1.05;;;;;;;27.16;24.05;100888.91;1699467;83;21362;-81
2023/06/06 06:13:26;;;;;;;8.83;1.27;;;;;;;27.12;23.85;100892.80;1683920;83;22575;-82
2023/06/06 06:16:31;;;;;;;1.65;1.20;;;;;;;26.91;24.12;100891.82;1703725;82;21348;-83
2023/06/06 06:19:37;;;;;;;4.00;1.27;;;;;;;26.81;24.46;100886.11;1708301;82;21330;-82
2023/06/06 06:22:46;;;;;;;1.87;1.32;;;;;;;26.97;24.28;100886.52;1697435;83;22619;-82
2023/06/06 06:25:52;;;;;;;3.47;1.12;;;;;;;27.11;23.10;100890.28;1698167;83;21331;-82
2023/06/06 06:29:01;;;;;;;7.10;1.27;;;;;;;27.24;22.98;100885.02;1692246;83;21860;-83
2023/06/06 06:32:06;;;;;;;5.60;1.57;;;;;;;27.54;22.71;100889.07;1670276;84;21307;-82
2023/06/06 06:35:14;;;;;;;1.62;0.88;;;;;;;27.67;22.73;100883.50;1703790;84;21330;-83
2023/06/06 06:38:20;;;;;;;10.30;1.20;;;;;;;27.68;22.96;100880.41;1690124;83;21979;-83
2023/06/06 06:41:27;;;;;;;2.55;1.10;;;;;;;27.61;21.92;100885.98;1674339;84;21338;-83
2023/06/06 06:44:33;;;;;;;1.62;1.10;;;;;;;27.67;21.67;100879.28;1695556;83;21323;-82
2023/06/06 06:47:40;;;;;;;3.35;1.20;;;;;;;27.85;22.78;100877.94;1673288;84;21328;-83
2023/06/06 06:50:47;;;;;;;2.62;1.20;;;;;;;28.04;22.61;100879.09;1672584;84;21291;-83
2023/06/06 06:53:46;;;;;;;5.85;1.40;;;;;;;28.03;22.42;100874.60;1706838;82;21304;-82
2023/06/06 06:56:53;;;;;;;2.23;1.10;;;;;;;27.85;21.66;100873.16;1697738;83;21298;-82
2023/06/06 06:59:58;;;;;;;2.05;1.17;;;;;;;27.58;22.16;100872.52;1692157;83;21347;-82
2023/06/06 07:03:04;;;;;;;2.77;1.15;;;;;;;27.43;21.73;100881.17;1680928;83;21344;-82
2023/06/06 07:06:11;;;;;;;5.30;1.50;;;;;;;27.52;21.13;100875.84;1698952;82;21339;-82
2023/06/06 07:09:20;;;;;;;5.10;1.20;;;;;;;27.76;21.65;100886.09;1697087;84;21316;-83
2023/06/06 07:12:25;;;;;;;9.23;1.65;;;;;;;28.01;22.12;100888.11;1698909;83;21384;-81
2023/06/06 07:15:30;;;;;;;3.58;1.40;;;;;;;28.03;21.56;100887.25;1721882;81;21330;-82
2023/06/06 07:18:36;;;;;;;2.33;1.40;;;;;;;28.27;21.46;100895.43;1731807;81;21294;-82
2023/06/06 07:21:41;;;;;;;2.90;1.42;;;;;;;28.12;21.09;100888.39;1727079;82;21353;-82
2023/06/06 07:24:47;;;;;;;5.95;1.27;;;;;;;28.24;21.51;100886.73;1730166;81;21290;-81
2023/06/06 07:27:53;;;;;;;4.65;1.12;;;;;;;28.46;21.54;100885.06;1726374;81;21290;-81
2023/06/06 07:31:00;;;;;;;3.20;1.40;;;;;;;28.72;22.21;100887.31;1731303;81;21298;-81
2023/06/06 07:34:05;;;;;;;1.72;1.40;;;;;;;28.73;21.52;100884.20;1719886;81;21351;-81
2023/06/06 07:37:10;;;;;;;3.00;1.47;;;;;;;28.82;21.24;100880.25;1744583;81;21934;-81
2023/06/06 07:40:17;;;;;;;2.17;1.30;;;;;;;28.64;22.33;100885.90;1741439;81;21604;-81
2023/06/06 07:43:24;;;;;;;6.37;1.35;;;;;;;28.78;21.96;100890.39;1735973;81;21945;-82
2023/06/06 07:46:32;;;;;;;6.05;1.10;;;;;;;28.66;22.12;100888.45;1720374;81;21337;-82
2023/06/06 07:49:37;;;;;;;6.50;1.47;;;;;;;28.77;21.84;100876.04;1730327;81;21331;-82
2023/06/06 07:52:47;;;;;;;2.37;1.20;;;;;;;28.89;22.00;100873.78;1723908;81;21329;-81
2023/06/06 07:55:54;;;;;;;2.72;1.30;;;;;;;28.91;22.18;100874.89;1724514;81;21368;-81
2023/06/06 07:59:02;;;;;;;2.67;1.47;;;;;;;29.05;22.41;100874.60;1723994;81;21517;-80
2023/06/06 08:02:10;;;;;;;2.77;1.22;;;;;;;29.06;22.53;100873.47;1734367;81;21804;-82
2023/06/06 08:05:19;;;;;;;4.03;1.45;;;;;;;29.00;22.31;100871.23;1696988;83;21956;-81
2023/06/06 08:08:26;;;;;;;2.77;1.25;;;;;;;28.84;22.17;100864.47;1727570;81;22324;-80
2023/06/06 08:11:33;;;;;;;3.87;1.52;;;;;;;28.66;23.01;100859.74;1716314;82;21351;-81
2023/06/06 08:14:40;;;;;;;2.15;1.35;;;;;;;28.64;22.83;100849.31;1736332;81;21446;-82
2023/06/06 08:17:45;;;;;;;2.77;1.40;;;;;;;28.90;22.57;100852.09;1730059;81;21350;-82
2023/06/06 08:20:53;;;;;;;2.65;1.27;;;;;;;28.94;23.75;100852.64;1716196;81;21240;-82
2023/06/06 08:24:07;;;;;;;2.75;1.30;;;;;;;29.08;23.04;100851.52;1747674;81;21366;-82
2023/06/06 08:27:14;;;;;;;3.33;1.35;;;;;;;29.01;22.83;100854.61;1728726;82;21319;-82
2023/06/06 08:30:15;;;;;;;5.28;1.35;;;;;;;29.24;22.59;100854.53;1725326;82;21904;-82
2023/06/06 08:33:08;;;;;;;2.50;1.17;;;;;;;29.25;22.49;100856.22;1721792;81;21362;-82
2023/06/06 08:35:54;;;;;;;7.95;1.40;;;;;;;29.33;22.46;100859.02;1727177;81;21333;-82
2023/06/06 08:38:48;;;;;;;3.20;1.30;;;;;;;29.34;22.29;100854.22;1715978;81;21315;-82
2023/06/06 08:41:35;;;;;;;5.53;1.30;;;;;;;29.45;22.68;100849.67;1672206;85;21351;-82
2023/06/06 08:44:29;;;;;;;4.60;1.40;;;;;;;29.63;22.00;100853.81;1725667;81;22026;-81
2023/06/06 08:47:34;;;;;;;4.33;1.32;;;;;;;29.56;21.95;100849.08;1734401;81;21327;-81
2023/06/06 08:50:39;;;;;;;2.75;1.20;;;;;;;29.52;22.33;100842.30;1727288;81;21316;-82
2023/06/06 08:53:50;;;;;;;2.65;1.45;;;;;;;29.36;22.44;100843.48;1734104;81;21296;-82
2023/06/06 08:56:56;;;;;;;7.28;1.70;;;;;;;29.20;22.01;100836.52;1730219;82;21313;-81
2023/06/06 09:00:11;;;;;;;5.53;1.50;;;;;;;29.12;22.12;100839.92;1728630;81;21294;-81
2023/06/06 09:03:03;;;;;;;3.25;1.30;;;;;;;28.56;22.66;100837.25;1726097;81;22033;-82
2023/06/06 09:06:17;;;;;;;3.45;1.30;;;;;;;28.38;22.37;100829.39;1717876;82;21341;-82
2023/06/06 09:09:21;;;;;;;2.47;1.52;;;;;;;28.28;22.69;100826.83;1722626;81;21367;-82
2023/06/06 09:12:27;;;;;;;7.97;1.40;;;;;;;28.36;23.66;100829.64;1754796;81;21346;-82
2023/06/06 09:15:37;;;;;;;5.40;1.07;;;;;;;28.64;22.65;100819.77;1720939;82;21355;-82
2023/06/06 09:18:43;;;;;;;4.28;1.32;;;;;;;28.69;22.48;100828.20;1712291;82;21366;-82
2023/06/06 09:21:51;;;;;;;3.83;1.20;;;;;;;28.88;22.45;100819.98;1722451;81;21330;-83
2023/06/06 09:24:58;;;;;;;7.10;1.52;;;;;;;28.80;22.38;100823.97;1732793;81;21376;-82
2023/06/06 09:28:11;;;;;;;3.45;1.35;;;;;;;28.75;22.74;100820.61;1708911;82;22026;-81
2023/06/06 09:31:37;;;;;;;5.55;1.45;;;;;;;28.60;22.51;100814.98;1720789;81;21325;-82
2023/06/06 09:34:44;;;;;;;2.05;1.30;;;;;;;28.55;22.79;100813.02;1721258;81;21312;-82
2023/06/06 09:37:50;;;;;;;2.87;1.67;;;;;;;28.45;21.98;100815.86;1722271;81;21348;-82
2023/06/06 09:41:01;;;;;;;4.62;1.40;;;;;;;28.46;22.38;100813.31;1721890;81;21320;-81
2023/06/06 09:44:06;;;;;;;11.20;1.47;;;;;;;28.69;22.02;100817.50;1723615;82;21305;-82
2023/06/06 09:47:13;;;;;;;3.35;1.45;;;;;;;28.30;22.95;100813.88;1725200;82;21301;-79
2023/06/06 09:50:21;;;;;;;6.33;1.40;;;;;;;28.44;22.35;100814.18;1730499;82;21356;-82
2023/06/06 09:53:27;;;;;;;3.40;1.60;;;;;;;28.56;22.09;100816.14;1724377;81;21984;-82
2023/06/06 09:56:38;;;;;;;4.95;1.40;;;;;;;28.62;22.41;100806.55;1712595;81;21390;-80
2023/06/06 09:59:41;;;;;;;2.08;1.30;;;;;;;28.76;21.87;100802.02;1718206;81;22466;-81
2023/06/06 10:02:54;;;;;;;3.92;1.45;;;;;;;28.70;22.39;100811.61;1727918;81;21341;-82
2023/06/06 10:06:05;;;;;;;5.50;1.42;;;;;;;28.63;21.98;100804.02;1727092;81;21914;-81
2023/06/06 10:09:13;;;;;;;3.62;1.30;;;;;;;28.41;22.62;100809.95;1729747;81;21317;-81
2023/06/06 10:12:19;;;;;;;5.92;1.60;;;;;;;28.40;22.21;100806.86;1731519;81;21306;-80
2023/06/06 10:15:25;;;;;;;4.55;1.42;;;;;;;28.36;22.15;100795.89;1706274;82;21303;-82
2023/06/06 10:18:32;;;;;;;2.20;1.30;;;;;;;28.55;23.07;100798.95;1702027;83;22151;-81
2023/06/06 10:21:43;;;;;;;4.28;1.22;;;;;;;28.50;22.38;100797.56;1704635;83;21284;-82
2023/06/06 10:24:52;;;;;;;2.62;1.10;;;;;;;28.53;22.10;100791.38;1692402;83;21301;-82
2023/06/06 10:28:09;;;;;;;5.20;1.20;;;;;;;28.53;22.32;100797.00;1682017;83;21476;-82
2023/06/06 10:31:33;;;;;;;3.47;1.35;;;;;;;28.51;22.35;100787.98;1682143;83;21286;-82
2023/06/06 10:34:42;;;;;;;11.48;2.12;;;;;;;28.45;23.08;100751.16;1697740;84;21334;-82
2023/06/06 10:37:41;;;;;;;3.58;1.40;;;;;;;28.49;22.96;100804.33;1690878;82;21331;-82
2023/06/06 10:41:02;;;;;;;5.67;1.50;;;;;;;28.57;22.49;100799.53;1698527;83;21323;-82
2023/06/06 10:44:08;;;;;;;6.03;1.47;;;;;;;28.64;21.99;100793.03;1689875;84;22291;-82
2023/06/06 10:47:32;;;;;;;1.37;1.00;;;;;;;28.75;22.03;100790.48;1669451;84;21322;-81
2023/06/06 10:50:38;;;;;;;3.05;1.72;;;;;;;28.74;22.71;100791.59;1676242;83;22111;-81
2023/06/06 10:53:44;;;;;;;5.35;1.40;;;;;;;28.88;22.37;100798.03;1669982;84;21301;-81
2023/06/06 10:56:53;;;;;;;4.37;1.50;;;;;;;28.70;22.22;100794.72;1680376;85;21645;-81
2023/06/06 10:59:59;;;;;;;3.87;1.32;;;;;;;29.02;21.67;100793.50;1684980;83;21338;-81
2023/06/06 11:03:18;;;;;;;4.65;1.15;;;;;;;29.20;21.27;100798.49;1689791;84;21305;-82
2023/06/06 11:06:26;;;;;;;7.58;1.92;;;;;;;29.21;21.75;100797.92;1685695;83;21901;-81
2023/06/06 11:09:38;;;;;;;5.97;1.60;;;;;;;29.05;21.02;100790.69;1652942;85;21310;-81
2023/06/06 11:12:43;;;;;;;4.42;1.62;;;;;;;29.01;21.35;100790.41;1675622;83;21287;-81
2023/06/06 11:15:49;;;;;;;2.35;1.20;;;;;;;28.92;21.71;100792.95;1728029;82;21331;-81
2023/06/06 11:18:55;;;;;;;3.87;1.55;;;;;;;29.03;21.62;100782.55;1698611;82;22020;-81
2023/06/06 11:22:06;;;;;;;11.43;1.72;;;;;;;29.16;21.31;100782.46;1716918;82;21319;-82
2023/06/06 11:25:13;;;;;;;4.17;1.72;;;;;;;29.28;21.70;100788.61;1713821;82;21318;-80
2023/06/06 11:28:18;;;;;;;2.65;1.37;;;;;;;29.53;21.08;100789.02;1727701;81;21627;-82
2023/06/06 11:31:23;;;;;;;4.65;1.62;;;;;;;29.25;21.21;100784.95;1734119;81;21314;-82
2023/06/06 11:34:30;;;;;;;2.65;1.67;;;;;;;29.16;21.30;100789.50;1727671;82;21298;-82
2023/06/06 11:37:36;;;;;;;6.12;1.75;;;;;;;29.15;22.41;100790.07;1733623;81;21307;-81
2023/06/06 11:40:42;;;;;;;3.95;1.52;;;;;;;29.09;21.23;100795.45;1727005;81;21348;-81
2023/06/06 11:43:56;;;;;;;7.80;1.57;;;;;;;29.10;21.38;100797.14;1737181;81;21217;-82
2023/06/06 11:47:03;;;;;;;6.00;1.60;;;;;;;29.18;21.36;100793.73;1697275;83;21357;-81
2023/06/06 11:50:09;;;;;;;7.72;2.30;;;;;;;29.55;21.18;100792.44;1677512;85;21311;-82
2023/06/06 11:53:15;;;;;;;8.33;2.52;;;;;;;29.75;20.80;100795.12;1678848;84;21327;-82
2023/06/06 11:56:25;;;;;;;4.37;1.85;;;;;;;29.83;20.67;100795.07;1728077;81;21365;-82
2023/06/06 11:59:30;;;;;;;3.80;2.02;;;;;;;29.90;20.90;100792.75;1732190;81;21945;-82
2023/06/06 12:02:37;;;;;;;4.10;1.82;;;;;;;29.95;20.39;100794.11;1735997;82;21331;-81
2023/06/06 12:05:42;;;;;;;3.95;1.85;;;;;;;29.94;20.42;100791.59;1731218;82;21917;-82
2023/06/06 12:08:48;;;;;;;3.33;1.50;;;;;;;29.95;20.51;100788.47;1731472;82;22023;-81
2023/06/06 12:12:07;;;;;;;5.50;1.72;;;;;;;29.94;20.65;100788.78;1728513;81;21571;-81
2023/06/06 12:15:14;;;;;;;4.42;1.95;;;;;;;29.98;20.39;100785.64;1730320;82;21317;-81
2023/06/06 12:18:20;;;;;;;3.95;1.72;;;;;;;29.90;19.90;100774.98;1728947;82;21310;-81
2023/06/06 12:21:27;;;;;;;3.27;1.60;;;;;;;29.91;21.02;100774.69;1729471;82;21857;-81
2023/06/06 12:24:35;;;;;;;4.45;1.80;;;;;;;29.75;21.25;100772.56;1730910;82;21322;-81
2023/06/06 12:27:41;;;;;;;3.52;1.75;;;;;;;29.58;20.27;100769.86;1722230;82;21682;-81
2023/06/06 12:30:51;;;;;;;3.45;1.80;;;;;;;29.48;21.14;100762.28;1722952;83;21349;-80
2023/06/06 12:33:56;;;;;;;10.08;2.85;;;;;;;29.40;21.22;100768.53;1744514;82;21861;-80
2023/06/06 12:37:02;;;;;;;7.95;1.85;;;;;;;29.13;21.30;100759.96;1741784;82;21338;-80
2023/06/06 12:40:09;;;;;;;2.47;1.70;;;;;;;28.96;21.71;100765.94;1739061;82;21303;-81
2023/06/06 12:43:15;;;;;;;6.20;2.30;;;;;;;28.67;21.83;100763.48;1736541;82;21953;-81
2023/06/06 12:46:22;;;;;;;12.25;2.90;;;;;;;28.51;21.75;100748.59;1738759;82;21295;-81
2023/06/06 12:49:28;;;;;;;6.90;2.10;;;;;;;28.34;22.77;100748.06;1737635;82;21378;-81
2023/06/06 12:52:34;;;;;;;10.00;2.42;;;;;;;28.49;21.89;100745.23;1737283;82;21322;-81
2023/06/06 12:55:40;;;;;;;4.12;2.20;;;;;;;28.62;21.96;100750.84;1739742;82;21857;-80
2023/06/06 12:58:46;;;;;;;3.75;1.80;;;;;;;28.48;22.11;100740.75;1738103;82;21420;-81
2023/06/06 13:01:52;;;;;;;11.10;2.20;;;;;;;28.65;22.43;100734.20;1737328;82;21382;-81
2023/06/06 13:04:58;;;;;;;3.40;1.80;;;;;;;28.75;22.06;100739.82;1737075;82;21327;-80
2023/06/06 13:08:03;;;;;;;5.70;1.90;;;;;;;29.01;21.44;100743.39;1736720;82;21358;-81
2023/06/06 13:11:10;;;;;;;6.10;2.20;;;;;;;28.86;21.40;100736.39;1736799;82;21973;-81
2023/06/06 13:14:16;;;;;;;5.05;1.92;;;;;;;28.68;21.99;100732.23;1742680;82;21302;-81
2023/06/06 13:17:22;;;;;;;8.98;2.50;;;;;;;28.48;21.91;100735.12;1744081;82;21937;-81
2023/06/06 13:20:28;;;;;;;9.58;2.42;;;;;;;28.59;22.53;100731.14;1743606;82;21318;-81
2023/06/06 13:23:33;;;;;;;5.65;2.10;;;;;;;28.68;21.83;100732.80;1742890;82;21315;-81
2023/06/06 13:26:39;;;;;;;6.60;2.00;;;;;;;28.68;21.38;100725.20;1742929;82;21675;-80
2023/06/06 13:29:46;;;;;;;5.25;2.17;;;;;;;28.77;21.74;100723.47;1741957;82;21993;-80
2023/06/06 13:32:53;;;;;;;5.83;1.95;;;;;;;28.87;22.27;100715.55;1742941;82;21307;-80
2023/06/06 13:35:59;;;;;;;9.10;2.17;;;;;;;29.09;22.34;100711.55;1743733;82;21298;-81
2023/06/06 13:39:05;;;;;;;6.45;2.45;;;;;;;29.09;22.52;100718.02;1743754;82;21310;-81
2023/06/06 13:42:11;;;;;;;8.73;2.80;;;;;;;29.31;21.53;100718.16;1744154;82;21303;-81
2023/06/06 13:45:18;;;;;;;6.95;2.58;;;;;;;29.11;22.65;100717.14;1744071;82;21291;-81
2023/06/06 13:48:23;;;;;;;11.60;2.85;;;;;;;29.06;22.78;100712.95;1744089;82;21306;-81
2023/06/06 13:51:29;;;;;;;6.78;2.42;;;;;;;29.13;21.70;100705.61;1744108;82;21857;-80
2023/06/06 13:54:38;;;;;;;7.22;2.45;;;;;;;28.94;21.61;100702.59;1742650;82;21311;-80
2023/06/06 13:57:50;;;;;;;16.32;2.77;;;;;;;29.02;22.18;100696.36;1742889;82;21327;-81
2023/06/06 14:00:53;;;;;;;3.67;2.20;;;;;;;29.07;22.49;100699.71;1742703;82;21335;-80
2023/06/06 14:04:05;;;;;;;14.00;3.02;;;;;;;29.11;22.28;100693.20;1744152;82;21856;-80
2023/06/06 14:07:10;;;;;;;6.42;2.40;;;;;;;29.22;22.24;100689.78;1743783;82;21894;-81
2023/06/06 14:10:17;;;;;;;4.70;2.52;;;;;;;29.07;22.25;100689.28;1743347;82;21362;-80
2023/06/06 14:13:24;;;;;;;5.95;2.40;;;;;;;29.02;23.08;100689.31;1741630;81;21362;-81
2023/06/06 14:16:30;;;;;;;17.73;2.77;;;;;;;28.96;22.54;100684.85;1739165;82;21302;-81
2023/06/06 14:19:38;;;;;;;11.18;2.72;;;;;;;28.89;22.62;100678.66;1737673;82;21314;-81
2023/06/06 14:22:44;;;;;;;6.10;2.47;;;;;;;28.95;22.43;100677.55;1737640;82;21323;-81
2023/06/06 14:25:53;;;;;;;6.08;2.60;;;;;;;28.73;22.75;100673.11;1737790;82;21326;-80
2023/06/06 14:28:59;;;;;;;15.95;2.70;;;;;;;28.72;23.11;100671.43;1738408;82;21331;-81